sensor_id;sensor_type;location;lat;lon;timestamp;temperature;humidity
11067;DHT22;29763;50.904;5.530;2022-12-18T00:01:29;-7.60;99.90
11067;DHT22;29763;50.904;5.530;2022-12-18T00:04:03;-7.70;99.90
11067;DHT22;29763;50.904;5.530;2022-12-18T00:06:31;-7.70;99.90
11067;DHT22;29763;50.904;5.530;2022-12-18T00:08:59;-7.70;99.90
11067;DHT22;29763;50.904;5.530;2022-12-18T00:11:28;-7.70;99.90
11067;DHT22;29763;50.904;5.530;2022-12-18T00:13:57;-7.70;99.90
11067;DHT22;29763;50.904;5.530;2022-12-18T00:16:27;-7.70;99.90
11067;DHT22;29763;50.904;5.530;2022-12-18T00:18:54;-7.70;99.90
11067;DHT22;29763;50.904;5.530;2022-12-18T00:21:21;-7.70;99.90
11067;DHT22;29763;50.904;5.530;2022-12-18T00:23:48;-7.70;99.90
11067;DHT22;29763;50.904;5.530;2022-12-18T00:26:23;-7.60;99.90
11067;DHT22;29763;50.904;5.530;2022-12-18T00:28:50;-7.60;99.90
11067;DHT22;29763;50.904;5.530;2022-12-18T00:31:19;-7.70;99.90
11067;DHT22;29763;50.904;5.530;2022-12-18T00:33:46;-7.70;99.90
11067;DHT22;29763;50.904;5.530;2022-12-18T00:36:18;-7.80;99.90
11067;DHT22;29763;50.904;5.530;2022-12-18T00:38:45;-7.90;99.90
11067;DHT22;29763;50.904;5.530;2022-12-18T00:41:14;-7.90;99.90
11067;DHT22;29763;50.904;5.530;2022-12-18T00:44:09;-7.80;99.90
11067;DHT22;29763;50.904;5.530;2022-12-18T00:46:41;-7.90;99.90
11067;DHT22;29763;50.904;5.530;2022-12-18T00:49:07;-7.90;99.90
11067;DHT22;29763;50.904;5.530;2022-12-18T00:51:34;-7.90;99.90
11067;DHT22;29763;50.904;5.530;2022-12-18T00:53:59;-7.90;99.90
11067;DHT22;29763;50.904;5.530;2022-12-18T00:56:26;-8.00;99.90
11067;DHT22;29763;50.904;5.530;2022-12-18T00:58:53;-8.00;99.90
11067;DHT22;29763;50.904;5.530;2022-12-18T01:01:19;-8.10;99.90
11067;DHT22;29763;50.904;5.530;2022-12-18T01:03:46;-8.10;99.90
11067;DHT22;29763;50.904;5.530;2022-12-18T01:06:13;-8.10;99.90
11067;DHT22;29763;50.904;5.530;2022-12-18T01:08:40;-8.10;99.90
11067;DHT22;29763;50.904;5.530;2022-12-18T01:11:15;-8.10;99.90
11067;DHT22;29763;50.904;5.530;2022-12-18T01:13:48;-8.20;99.90
11067;DHT22;29763;50.904;5.530;2022-12-18T01:16:15;-8.20;99.90
11067;DHT22;29763;50.904;5.530;2022-12-18T01:18:43;-8.10;99.90
11067;DHT22;29763;50.904;5.530;2022-12-18T01:21:14;-8.10;99.90
11067;DHT22;29763;50.904;5.530;2022-12-18T01:23:41;-8.10;99.90
11067;DHT22;29763;50.904;5.530;2022-12-18T01:26:10;-8.10;99.90
11067;DHT22;29763;50.904;5.530;2022-12-18T01:28:40;-8.10;99.90
11067;DHT22;29763;50.904;5.530;2022-12-18T01:31:15;-8.20;99.90
11067;DHT22;29763;50.904;5.530;2022-12-18T01:33:42;-8.10;99.90
11067;DHT22;29763;50.904;5.530;2022-12-18T01:36:13;-8.10;99.90
11067;DHT22;29763;50.904;5.530;2022-12-18T01:38:40;-8.10;99.90
11067;DHT22;29763;50.904;5.530;2022-12-18T01:41:06;-8.10;99.90
11067;DHT22;29763;50.904;5.530;2022-12-18T01:43:48;-8.20;99.90
11067;DHT22;29763;50.904;5.530;2022-12-18T01:46:15;-8.20;99.90
11067;DHT22;29763;50.904;5.530;2022-12-18T01:48:43;-8.20;99.90
11067;DHT22;29763;50.904;5.530;2022-12-18T01:51:11;-8.20;99.90
11067;DHT22;29763;50.904;5.530;2022-12-18T01:53:40;-8.30;99.90
11067;DHT22;29763;50.904;5.530;2022-12-18T01:56:06;-8.30;99.90
11067;DHT22;29763;50.904;5.530;2022-12-18T02:01:31;-8.30;99.90
11067;DHT22;29763;50.904;5.530;2022-12-18T02:04:34;-8.30;99.90
11067;DHT22;29763;50.904;5.530;2022-12-18T02:12:56;-8.30;99.90
11067;DHT22;29763;50.904;5.530;2022-12-18T02:18:37;-8.30;99.90
11067;DHT22;29763;50.904;5.530;2022-12-18T02:24:45;-8.40;99.90
11067;DHT22;29763;50.904;5.530;2022-12-18T02:27:19;-8.40;99.90
11067;DHT22;29763;50.904;5.530;2022-12-18T02:29:51;-8.40;99.90
11067;DHT22;29763;50.904;5.530;2022-12-18T02:32:23;-8.40;99.90
11067;DHT22;29763;50.904;5.530;2022-12-18T02:34:51;-8.50;99.90
11067;DHT22;29763;50.904;5.530;2022-12-18T02:37:18;-8.50;99.90
11067;DHT22;29763;50.904;5.530;2022-12-18T02:39:47;-8.50;99.90
11067;DHT22;29763;50.904;5.530;2022-12-18T02:42:14;-8.50;99.90
11067;DHT22;29763;50.904;5.530;2022-12-18T02:44:46;-8.50;99.90
11067;DHT22;29763;50.904;5.530;2022-12-18T02:47:14;-8.50;99.90
11067;DHT22;29763;50.904;5.530;2022-12-18T02:50:03;-8.50;99.90
11067;DHT22;29763;50.904;5.530;2022-12-18T02:56:09;-8.50;99.90
11067;DHT22;29763;50.904;5.530;2022-12-18T02:58:52;-8.50;99.90
11067;DHT22;29763;50.904;5.530;2022-12-18T03:01:46;-8.50;99.90
11067;DHT22;29763;50.904;5.530;2022-12-18T03:04:42;-8.40;99.90
11067;DHT22;29763;50.904;5.530;2022-12-18T03:07:26;-8.40;99.90
11067;DHT22;29763;50.904;5.530;2022-12-18T03:09:54;-8.40;99.90
11067;DHT22;29763;50.904;5.530;2022-12-18T03:12:27;-8.30;99.90
11067;DHT22;29763;50.904;5.530;2022-12-18T03:15:08;-8.20;99.90
11067;DHT22;29763;50.904;5.530;2022-12-18T03:17:38;-8.30;99.90
11067;DHT22;29763;50.904;5.530;2022-12-18T03:20:10;-8.20;99.90
11067;DHT22;29763;50.904;5.530;2022-12-18T03:22:39;-8.20;99.90
11067;DHT22;29763;50.904;5.530;2022-12-18T03:25:08;-8.20;99.90
11067;DHT22;29763;50.904;5.530;2022-12-18T03:27:40;-8.20;99.90
11067;DHT22;29763;50.904;5.530;2022-12-18T03:30:10;-8.30;99.90
11067;DHT22;29763;50.904;5.530;2022-12-18T03:33:11;-8.40;99.90
11067;DHT22;29763;50.904;5.530;2022-12-18T03:35:42;-8.40;99.90
11067;DHT22;29763;50.904;5.530;2022-12-18T03:38:09;-8.40;99.90
11067;DHT22;29763;50.904;5.530;2022-12-18T03:41:19;-8.40;99.90
11067;DHT22;29763;50.904;5.530;2022-12-18T03:46:48;-8.40;99.90
11067;DHT22;29763;50.904;5.530;2022-12-18T03:52:09;-8.40;99.90
11067;DHT22;29763;50.904;5.530;2022-12-18T03:54:37;-8.50;99.90
11067;DHT22;29763;50.904;5.530;2022-12-18T03:57:13;-8.50;99.90
11067;DHT22;29763;50.904;5.530;2022-12-18T03:59:44;-8.50;99.90
11067;DHT22;29763;50.904;5.530;2022-12-18T04:02:12;-8.40;99.90
11067;DHT22;29763;50.904;5.530;2022-12-18T04:04:39;-8.40;99.90
11067;DHT22;29763;50.904;5.530;2022-12-18T04:07:05;-8.50;99.90
11067;DHT22;29763;50.904;5.530;2022-12-18T04:09:33;-8.60;99.90
11067;DHT22;29763;50.904;5.530;2022-12-18T04:12:00;-8.60;99.90
11067;DHT22;29763;50.904;5.530;2022-12-18T04:14:27;-8.50;99.90
11067;DHT22;29763;50.904;5.530;2022-12-18T04:16:52;-8.50;99.90
11067;DHT22;29763;50.904;5.530;2022-12-18T04:19:19;-8.50;99.90
11067;DHT22;29763;50.904;5.530;2022-12-18T04:21:45;-8.50;99.90
11067;DHT22;29763;50.904;5.530;2022-12-18T04:24:13;-8.50;99.90
11067;DHT22;29763;50.904;5.530;2022-12-18T04:26:39;-8.40;99.90
11067;DHT22;29763;50.904;5.530;2022-12-18T04:29:05;-8.40;99.90
11067;DHT22;29763;50.904;5.530;2022-12-18T04:31:30;-8.40;99.90
11067;DHT22;29763;50.904;5.530;2022-12-18T04:33:56;-8.40;99.90
11067;DHT22;29763;50.904;5.530;2022-12-18T04:36:23;-8.50;99.90
11067;DHT22;29763;50.904;5.530;2022-12-18T04:38:50;-8.50;99.90
11067;DHT22;29763;50.904;5.530;2022-12-18T04:41:23;-8.60;99.90
11067;DHT22;29763;50.904;5.530;2022-12-18T04:43:50;-8.50;99.90
11067;DHT22;29763;50.904;5.530;2022-12-18T04:46:18;-8.50;99.90
11067;DHT22;29763;50.904;5.530;2022-12-18T04:48:46;-8.60;99.90
11067;DHT22;29763;50.904;5.530;2022-12-18T04:51:15;-8.60;99.90
11067;DHT22;29763;50.904;5.530;2022-12-18T04:53:43;-8.70;99.90
11067;DHT22;29763;50.904;5.530;2022-12-18T04:56:14;-8.70;99.90
11067;DHT22;29763;50.904;5.530;2022-12-18T04:58:42;-8.80;99.90
11067;DHT22;29763;50.904;5.530;2022-12-18T05:01:09;-8.80;99.90
11067;DHT22;29763;50.904;5.530;2022-12-18T05:03:44;-8.70;99.90
11067;DHT22;29763;50.904;5.530;2022-12-18T05:06:11;-8.80;99.90
11067;DHT22;29763;50.904;5.530;2022-12-18T05:08:37;-8.80;99.90
11067;DHT22;29763;50.904;5.530;2022-12-18T05:11:14;-8.80;99.90
11067;DHT22;29763;50.904;5.530;2022-12-18T05:13:44;-8.80;99.90
11067;DHT22;29763;50.904;5.530;2022-12-18T05:16:11;-8.90;99.90
11067;DHT22;29763;50.904;5.530;2022-12-18T05:18:38;-9.00;99.90
11067;DHT22;29763;50.904;5.530;2022-12-18T05:21:04;-8.90;99.90
11067;DHT22;29763;50.904;5.530;2022-12-18T05:23:30;-8.90;99.90
11067;DHT22;29763;50.904;5.530;2022-12-18T05:26:03;-8.80;99.90
11067;DHT22;29763;50.904;5.530;2022-12-18T05:28:32;-8.80;99.90
11067;DHT22;29763;50.904;5.530;2022-12-18T05:31:00;-8.90;99.90
11067;DHT22;29763;50.904;5.530;2022-12-18T05:33:30;-8.90;99.90
11067;DHT22;29763;50.904;5.530;2022-12-18T05:36:00;-9.00;99.90
11067;DHT22;29763;50.904;5.530;2022-12-18T05:38:28;-8.90;99.90
11067;DHT22;29763;50.904;5.530;2022-12-18T05:40:57;-8.90;99.90
11067;DHT22;29763;50.904;5.530;2022-12-18T05:43:25;-8.90;99.90
11067;DHT22;29763;50.904;5.530;2022-12-18T05:45:51;-8.90;99.90
11067;DHT22;29763;50.904;5.530;2022-12-18T05:48:18;-9.00;99.90
11067;DHT22;29763;50.904;5.530;2022-12-18T05:50:46;-8.90;99.90
11067;DHT22;29763;50.904;5.530;2022-12-18T05:53:14;-9.00;99.90
11067;DHT22;29763;50.904;5.530;2022-12-18T05:55:41;-9.00;99.90
11067;DHT22;29763;50.904;5.530;2022-12-18T05:58:08;-8.90;99.90
11067;DHT22;29763;50.904;5.530;2022-12-18T06:00:36;-9.00;99.90
11067;DHT22;29763;50.904;5.530;2022-12-18T06:03:06;-8.90;99.90
11067;DHT22;29763;50.904;5.530;2022-12-18T06:05:36;-8.90;99.90
11067;DHT22;29763;50.904;5.530;2022-12-18T06:08:02;-9.00;99.90
11067;DHT22;29763;50.904;5.530;2022-12-18T06:10:28;-9.00;99.90
11067;DHT22;29763;50.904;5.530;2022-12-18T06:12:54;-9.10;99.90
11067;DHT22;29763;50.904;5.530;2022-12-18T06:15:19;-9.10;99.90
11067;DHT22;29763;50.904;5.530;2022-12-18T06:17:45;-9.10;99.90
11067;DHT22;29763;50.904;5.530;2022-12-18T06:20:12;-9.10;99.90
11067;DHT22;29763;50.904;5.530;2022-12-18T06:22:39;-9.10;99.90
11067;DHT22;29763;50.904;5.530;2022-12-18T06:25:05;-9.10;99.90
11067;DHT22;29763;50.904;5.530;2022-12-18T06:27:32;-9.00;99.90
11067;DHT22;29763;50.904;5.530;2022-12-18T06:29:59;-9.10;99.90
11067;DHT22;29763;50.904;5.530;2022-12-18T06:32:25;-9.10;99.90
11067;DHT22;29763;50.904;5.530;2022-12-18T06:34:51;-9.10;99.90
11067;DHT22;29763;50.904;5.530;2022-12-18T06:37:17;-9.20;99.90
11067;DHT22;29763;50.904;5.530;2022-12-18T06:39:44;-9.20;99.90
11067;DHT22;29763;50.904;5.530;2022-12-18T06:42:09;-9.20;99.90
11067;DHT22;29763;50.904;5.530;2022-12-18T06:44:35;-9.20;99.90
11067;DHT22;29763;50.904;5.530;2022-12-18T06:47:02;-9.20;99.90
11067;DHT22;29763;50.904;5.530;2022-12-18T06:49:35;-9.10;99.90
11067;DHT22;29763;50.904;5.530;2022-12-18T06:52:02;-9.10;99.90
11067;DHT22;29763;50.904;5.530;2022-12-18T06:54:27;-9.20;99.90
11067;DHT22;29763;50.904;5.530;2022-12-18T06:56:53;-9.20;99.90
11067;DHT22;29763;50.904;5.530;2022-12-18T06:59:19;-9.20;99.90
11067;DHT22;29763;50.904;5.530;2022-12-18T07:01:45;-9.20;99.90
11067;DHT22;29763;50.904;5.530;2022-12-18T07:04:12;-9.30;99.90
11067;DHT22;29763;50.904;5.530;2022-12-18T07:06:49;-9.30;99.90
11067;DHT22;29763;50.904;5.530;2022-12-18T07:09:14;-9.30;99.90
11067;DHT22;29763;50.904;5.530;2022-12-18T07:11:40;-9.40;99.90
11067;DHT22;29763;50.904;5.530;2022-12-18T07:14:07;-9.40;99.90
11067;DHT22;29763;50.904;5.530;2022-12-18T07:16:32;-9.40;99.90
11067;DHT22;29763;50.904;5.530;2022-12-18T07:19:01;-9.40;99.90
11067;DHT22;29763;50.904;5.530;2022-12-18T07:21:33;-9.30;99.90
11067;DHT22;29763;50.904;5.530;2022-12-18T07:24:00;-9.20;99.90
11067;DHT22;29763;50.904;5.530;2022-12-18T07:26:27;-8.60;99.90
11067;DHT22;29763;50.904;5.530;2022-12-18T07:28:55;-8.10;99.90
11067;DHT22;29763;50.904;5.530;2022-12-18T07:31:23;-8.40;99.90
11067;DHT22;29763;50.904;5.530;2022-12-18T07:33:50;-8.70;99.90
11067;DHT22;29763;50.904;5.530;2022-12-18T07:36:16;-8.90;99.90
11067;DHT22;29763;50.904;5.530;2022-12-18T07:38:43;-9.00;99.90
11067;DHT22;29763;50.904;5.530;2022-12-18T07:41:11;-9.10;99.90
11067;DHT22;29763;50.904;5.530;2022-12-18T07:43:37;-9.10;99.90
11067;DHT22;29763;50.904;5.530;2022-12-18T07:46:04;-9.10;99.90
11067;DHT22;29763;50.904;5.530;2022-12-18T07:48:31;-9.10;99.90
11067;DHT22;29763;50.904;5.530;2022-12-18T07:51:06;-9.10;99.90
11067;DHT22;29763;50.904;5.530;2022-12-18T07:53:33;-9.10;99.90
11067;DHT22;29763;50.904;5.530;2022-12-18T08:06:09;-9.00;99.90
11067;DHT22;29763;50.904;5.530;2022-12-18T08:08:35;-9.00;99.90
11067;DHT22;29763;50.904;5.530;2022-12-18T08:11:01;-8.90;99.90
11067;DHT22;29763;50.904;5.530;2022-12-18T08:13:28;-8.90;99.90
11067;DHT22;29763;50.904;5.530;2022-12-18T08:15:58;-8.80;99.90
11067;DHT22;29763;50.904;5.530;2022-12-18T08:18:24;-8.70;99.90
11067;DHT22;29763;50.904;5.530;2022-12-18T08:20:51;-8.70;99.90
11067;DHT22;29763;50.904;5.530;2022-12-18T08:23:18;-8.60;99.90
11067;DHT22;29763;50.904;5.530;2022-12-18T08:25:45;-8.50;99.90
11067;DHT22;29763;50.904;5.530;2022-12-18T08:28:31;-8.50;99.90
11067;DHT22;29763;50.904;5.530;2022-12-18T08:30:56;-8.50;99.90
11067;DHT22;29763;50.904;5.530;2022-12-18T08:36:44;-8.30;99.90
11067;DHT22;29763;50.904;5.530;2022-12-18T08:39:11;-8.20;99.90
11067;DHT22;29763;50.904;5.530;2022-12-18T08:41:37;-8.10;99.90
11067;DHT22;29763;50.904;5.530;2022-12-18T08:44:02;-8.00;99.90
11067;DHT22;29763;50.904;5.530;2022-12-18T08:46:46;-8.00;99.90
11067;DHT22;29763;50.904;5.530;2022-12-18T08:49:17;-7.90;99.90
11067;DHT22;29763;50.904;5.530;2022-12-18T08:58:56;-7.50;99.90
11067;DHT22;29763;50.904;5.530;2022-12-18T09:01:23;-7.30;99.90
11067;DHT22;29763;50.904;5.530;2022-12-18T09:03:50;-7.10;99.90
11067;DHT22;29763;50.904;5.530;2022-12-18T09:06:18;-7.00;99.90
11067;DHT22;29763;50.904;5.530;2022-12-18T09:09:03;-6.80;99.90
11067;DHT22;29763;50.904;5.530;2022-12-18T09:11:30;-6.60;99.90
11067;DHT22;29763;50.904;5.530;2022-12-18T09:13:56;-6.50;99.90
11067;DHT22;29763;50.904;5.530;2022-12-18T09:16:24;-6.40;99.90
11067;DHT22;29763;50.904;5.530;2022-12-18T09:18:52;-6.20;99.90
11067;DHT22;29763;50.904;5.530;2022-12-18T09:21:28;-6.10;99.90
11067;DHT22;29763;50.904;5.530;2022-12-18T09:23:55;-6.00;99.90
11067;DHT22;29763;50.904;5.530;2022-12-18T09:26:22;-5.80;99.90
11067;DHT22;29763;50.904;5.530;2022-12-18T09:28:49;-5.80;99.90
11067;DHT22;29763;50.904;5.530;2022-12-18T09:31:17;-5.60;99.90
11067;DHT22;29763;50.904;5.530;2022-12-18T09:33:44;-5.60;99.90
11067;DHT22;29763;50.904;5.530;2022-12-18T09:36:16;-5.40;99.90
11067;DHT22;29763;50.904;5.530;2022-12-18T09:38:43;-5.30;99.90
11067;DHT22;29763;50.904;5.530;2022-12-18T09:49:47;-4.80;99.90
11067;DHT22;29763;50.904;5.530;2022-12-18T09:52:27;-4.70;99.90
11067;DHT22;29763;50.904;5.530;2022-12-18T09:55:03;-4.60;99.90
11067;DHT22;29763;50.904;5.530;2022-12-18T09:57:33;-4.50;99.90
11067;DHT22;29763;50.904;5.530;2022-12-18T10:03:12;-4.20;99.90
11067;DHT22;29763;50.904;5.530;2022-12-18T10:06:06;-4.10;99.90
11067;DHT22;29763;50.904;5.530;2022-12-18T10:11:32;-3.80;99.90
11067;DHT22;29763;50.904;5.530;2022-12-18T10:20:37;-3.50;99.90
11067;DHT22;29763;50.904;5.530;2022-12-18T10:28:40;-3.30;99.90
11067;DHT22;29763;50.904;5.530;2022-12-18T10:31:12;-3.20;99.90
11067;DHT22;29763;50.904;5.530;2022-12-18T10:33:41;-3.10;99.90
11067;DHT22;29763;50.904;5.530;2022-12-18T10:36:06;-3.00;99.90
11067;DHT22;29763;50.904;5.530;2022-12-18T10:38:35;-3.10;99.90
11067;DHT22;29763;50.904;5.530;2022-12-18T10:43:35;-3.10;99.90
11067;DHT22;29763;50.904;5.530;2022-12-18T10:51:34;-3.00;99.90
11067;DHT22;29763;50.904;5.530;2022-12-18T10:54:12;-3.00;99.90
11067;DHT22;29763;50.904;5.530;2022-12-18T10:56:39;-3.00;99.90
11067;DHT22;29763;50.904;5.530;2022-12-18T10:59:08;-3.00;99.90
11067;DHT22;29763;50.904;5.530;2022-12-18T11:01:56;-2.80;99.90
11067;DHT22;29763;50.904;5.530;2022-12-18T11:04:31;-2.80;99.90
11067;DHT22;29763;50.904;5.530;2022-12-18T11:07:00;-2.80;99.90
11067;DHT22;29763;50.904;5.530;2022-12-18T11:09:32;-2.70;99.90
11067;DHT22;29763;50.904;5.530;2022-12-18T11:12:01;-2.70;99.90
11067;DHT22;29763;50.904;5.530;2022-12-18T11:14:32;-2.70;99.90
11067;DHT22;29763;50.904;5.530;2022-12-18T11:17:00;-2.70;99.90
11067;DHT22;29763;50.904;5.530;2022-12-18T11:19:36;-2.70;99.90
11067;DHT22;29763;50.904;5.530;2022-12-18T11:22:29;-2.60;99.90
11067;DHT22;29763;50.904;5.530;2022-12-18T11:24:58;-2.50;99.90
11067;DHT22;29763;50.904;5.530;2022-12-18T11:27:26;-2.50;99.90
11067;DHT22;29763;50.904;5.530;2022-12-18T11:30:10;-2.50;99.90
11067;DHT22;29763;50.904;5.530;2022-12-18T11:32:37;-2.40;99.90
11067;DHT22;29763;50.904;5.530;2022-12-18T11:37:58;-2.30;99.90
11067;DHT22;29763;50.904;5.530;2022-12-18T11:40:36;-2.20;99.90
11067;DHT22;29763;50.904;5.530;2022-12-18T11:43:32;-2.20;99.90
11067;DHT22;29763;50.904;5.530;2022-12-18T11:48:57;-2.10;99.90
11067;DHT22;29763;50.904;5.530;2022-12-18T11:54:14;-1.90;99.90
11067;DHT22;29763;50.904;5.530;2022-12-18T12:02:58;-1.80;99.90
11067;DHT22;29763;50.904;5.530;2022-12-18T12:05:55;-1.80;99.90
11067;DHT22;29763;50.904;5.530;2022-12-18T12:11:39;-1.70;99.90
11067;DHT22;29763;50.904;5.530;2022-12-18T12:20:30;-1.50;99.90
11067;DHT22;29763;50.904;5.530;2022-12-18T12:25:39;-1.50;99.90
11067;DHT22;29763;50.904;5.530;2022-12-18T12:28:19;-1.50;99.90
11067;DHT22;29763;50.904;5.530;2022-12-18T12:39:53;-1.30;99.90
11067;DHT22;29763;50.904;5.530;2022-12-18T12:42:44;-1.30;99.90
11067;DHT22;29763;50.904;5.530;2022-12-18T12:45:36;-1.20;99.90
11067;DHT22;29763;50.904;5.530;2022-12-18T12:51:13;-1.20;99.90
11067;DHT22;29763;50.904;5.530;2022-12-18T12:53:40;-1.20;99.90
11067;DHT22;29763;50.904;5.530;2022-12-18T12:56:10;-1.20;99.90
11067;DHT22;29763;50.904;5.530;2022-12-18T13:02:05;-1.10;99.90
11067;DHT22;29763;50.904;5.530;2022-12-18T13:08:02;-1.00;99.90
11067;DHT22;29763;50.904;5.530;2022-12-18T13:10:39;-1.00;99.90
11067;DHT22;29763;50.904;5.530;2022-12-18T13:13:11;-0.90;99.90
11067;DHT22;29763;50.904;5.530;2022-12-18T13:16:07;-1.00;99.90
11067;DHT22;29763;50.904;5.530;2022-12-18T13:18:36;-1.00;99.90
11067;DHT22;29763;50.904;5.530;2022-12-18T13:21:23;-1.00;99.90
11067;DHT22;29763;50.904;5.530;2022-12-18T13:23:50;-0.90;99.90
11067;DHT22;29763;50.904;5.530;2022-12-18T13:26:35;-0.80;99.90
11067;DHT22;29763;50.904;5.530;2022-12-18T13:29:02;-0.80;99.90
11067;DHT22;29763;50.904;5.530;2022-12-18T13:34:23;-0.70;99.90
11067;DHT22;29763;50.904;5.530;2022-12-18T13:36:49;-0.60;99.90
11067;DHT22;29763;50.904;5.530;2022-12-18T13:39:35;-0.60;99.90
11067;DHT22;29763;50.904;5.530;2022-12-18T13:44:56;-0.50;99.90
11067;DHT22;29763;50.904;5.530;2022-12-18T13:47:41;-0.40;99.90
11067;DHT22;29763;50.904;5.530;2022-12-18T13:50:35;-0.50;99.90
11067;DHT22;29763;50.904;5.530;2022-12-18T13:53:01;-0.50;99.90
11067;DHT22;29763;50.904;5.530;2022-12-18T13:55:34;-0.40;99.90
11067;DHT22;29763;50.904;5.530;2022-12-18T13:58:04;-0.40;99.90
11067;DHT22;29763;50.904;5.530;2022-12-18T14:00:32;-0.40;99.90
11067;DHT22;29763;50.904;5.530;2022-12-18T14:02:59;-0.40;99.90
11067;DHT22;29763;50.904;5.530;2022-12-18T14:05:26;-0.40;99.90
11067;DHT22;29763;50.904;5.530;2022-12-18T14:07:53;-0.50;99.90
11067;DHT22;29763;50.904;5.530;2022-12-18T14:10:21;-0.50;99.90
11067;DHT22;29763;50.904;5.530;2022-12-18T14:12:48;-0.50;99.90
11067;DHT22;29763;50.904;5.530;2022-12-18T14:18:24;-0.50;99.90
11067;DHT22;29763;50.904;5.530;2022-12-18T14:20:53;-0.50;99.90
11067;DHT22;29763;50.904;5.530;2022-12-18T14:23:40;-0.50;99.90
11067;DHT22;29763;50.904;5.530;2022-12-18T14:26:38;-0.60;99.90
11067;DHT22;29763;50.904;5.530;2022-12-18T14:32:11;-0.60;99.90
11067;DHT22;29763;50.904;5.530;2022-12-18T14:34:53;-0.60;99.90
11067;DHT22;29763;50.904;5.530;2022-12-18T14:37:26;-0.70;99.90
11067;DHT22;29763;50.904;5.530;2022-12-18T14:39:58;-0.70;99.90
11067;DHT22;29763;50.904;5.530;2022-12-18T14:42:26;-0.80;99.90
11067;DHT22;29763;50.904;5.530;2022-12-18T14:45:45;-0.80;99.90
11067;DHT22;29763;50.904;5.530;2022-12-18T14:48:36;-0.90;99.90
11067;DHT22;29763;50.904;5.530;2022-12-18T14:51:17;-0.90;99.90
11067;DHT22;29763;50.904;5.530;2022-12-18T14:53:47;-0.90;99.90
11067;DHT22;29763;50.904;5.530;2022-12-18T14:56:21;-0.80;99.90
11067;DHT22;29763;50.904;5.530;2022-12-18T14:58:53;-0.90;99.90
11067;DHT22;29763;50.904;5.530;2022-12-18T15:09:38;-1.00;99.90
11067;DHT22;29763;50.904;5.530;2022-12-18T15:12:04;-1.10;99.90
11067;DHT22;29763;50.904;5.530;2022-12-18T15:14:35;-1.10;99.90
11067;DHT22;29763;50.904;5.530;2022-12-18T15:17:16;-1.20;99.90
11067;DHT22;29763;50.904;5.530;2022-12-18T15:19:44;-1.30;99.90
11067;DHT22;29763;50.904;5.530;2022-12-18T15:22:25;-1.40;99.90
11067;DHT22;29763;50.904;5.530;2022-12-18T15:24:52;-1.40;99.90
11067;DHT22;29763;50.904;5.530;2022-12-18T15:27:40;-1.40;99.90
11067;DHT22;29763;50.904;5.530;2022-12-18T15:30:21;-1.50;99.90
11067;DHT22;29763;50.904;5.530;2022-12-18T15:32:49;-1.60;99.90
11067;DHT22;29763;50.904;5.530;2022-12-18T15:35:22;-1.60;99.90
11067;DHT22;29763;50.904;5.530;2022-12-18T15:37:50;-1.60;99.90
11067;DHT22;29763;50.904;5.530;2022-12-18T15:40:22;-1.70;99.90
11067;DHT22;29763;50.904;5.530;2022-12-18T15:42:53;-1.70;99.90
11067;DHT22;29763;50.904;5.530;2022-12-18T15:45:38;-1.70;99.90
11067;DHT22;29763;50.904;5.530;2022-12-18T15:48:21;-1.70;99.90
11067;DHT22;29763;50.904;5.530;2022-12-18T15:50:53;-1.60;99.90
11067;DHT22;29763;50.904;5.530;2022-12-18T15:53:19;-1.60;99.90
11067;DHT22;29763;50.904;5.530;2022-12-18T15:55:46;-1.60;99.90
11067;DHT22;29763;50.904;5.530;2022-12-18T15:58:31;-1.60;99.90
11067;DHT22;29763;50.904;5.530;2022-12-18T16:00:59;-1.60;99.90
11067;DHT22;29763;50.904;5.530;2022-12-18T16:03:25;-1.60;99.90
11067;DHT22;29763;50.904;5.530;2022-12-18T16:05:57;-1.50;99.90
11067;DHT22;29763;50.904;5.530;2022-12-18T16:08:26;-1.50;99.90
11067;DHT22;29763;50.904;5.530;2022-12-18T16:10:52;-1.50;99.90
11067;DHT22;29763;50.904;5.530;2022-12-18T16:13:25;-1.50;99.90
11067;DHT22;29763;50.904;5.530;2022-12-18T16:25:41;-1.30;99.90
11067;DHT22;29763;50.904;5.530;2022-12-18T16:28:07;-1.20;99.90
11067;DHT22;29763;50.904;5.530;2022-12-18T16:30:34;-1.20;99.90
11067;DHT22;29763;50.904;5.530;2022-12-18T16:33:01;-1.10;99.90
11067;DHT22;29763;50.904;5.530;2022-12-18T16:35:27;-1.00;99.90
11067;DHT22;29763;50.904;5.530;2022-12-18T16:44:39;-1.00;99.90
11067;DHT22;29763;50.904;5.530;2022-12-18T16:47:04;-1.10;99.90
11067;DHT22;29763;50.904;5.530;2022-12-18T16:49:32;-1.00;99.90
11067;DHT22;29763;50.904;5.530;2022-12-18T16:51:57;-1.10;99.90
11067;DHT22;29763;50.904;5.530;2022-12-18T16:54:24;-1.00;99.90
11067;DHT22;29763;50.904;5.530;2022-12-18T16:56:50;-1.00;99.90
11067;DHT22;29763;50.904;5.530;2022-12-18T16:59:16;-1.00;99.90
11067;DHT22;29763;50.904;5.530;2022-12-18T17:01:43;-1.00;99.90
11067;DHT22;29763;50.904;5.530;2022-12-18T17:04:28;-1.00;99.90
11067;DHT22;29763;50.904;5.530;2022-12-18T17:07:04;-0.90;99.90
11067;DHT22;29763;50.904;5.530;2022-12-18T17:09:33;-0.90;99.90
11067;DHT22;29763;50.904;5.530;2022-12-18T17:12:01;-0.70;99.90
11067;DHT22;29763;50.904;5.530;2022-12-18T17:14:28;-0.70;99.90
11067;DHT22;29763;50.904;5.530;2022-12-18T17:16:57;-0.60;99.90
11067;DHT22;29763;50.904;5.530;2022-12-18T17:19:28;-0.50;99.90
11067;DHT22;29763;50.904;5.530;2022-12-18T17:21:56;-0.50;99.90
11067;DHT22;29763;50.904;5.530;2022-12-18T17:24:33;-0.40;99.90
11067;DHT22;29763;50.904;5.530;2022-12-18T17:27:00;-0.30;99.90
11067;DHT22;29763;50.904;5.530;2022-12-18T17:29:33;-0.20;99.90
11067;DHT22;29763;50.904;5.530;2022-12-18T17:38:25;0.20;99.90
11067;DHT22;29763;50.904;5.530;2022-12-18T17:40:52;0.20;99.90
11067;DHT22;29763;50.904;5.530;2022-12-18T17:43:22;0.30;99.90
11067;DHT22;29763;50.904;5.530;2022-12-18T17:45:48;0.30;99.90
11067;DHT22;29763;50.904;5.530;2022-12-18T17:48:16;0.30;99.90
11067;DHT22;29763;50.904;5.530;2022-12-18T17:50:43;0.20;99.90
11067;DHT22;29763;50.904;5.530;2022-12-18T17:53:10;0.30;99.90
11067;DHT22;29763;50.904;5.530;2022-12-18T17:55:37;0.30;99.90
11067;DHT22;29763;50.904;5.530;2022-12-18T17:58:03;0.30;99.90
11067;DHT22;29763;50.904;5.530;2022-12-18T18:00:33;0.30;99.90
11067;DHT22;29763;50.904;5.530;2022-12-18T18:03:00;0.40;99.90
11067;DHT22;29763;50.904;5.530;2022-12-18T18:05:26;0.40;99.90
11067;DHT22;29763;50.904;5.530;2022-12-18T18:07:53;0.40;99.90
11067;DHT22;29763;50.904;5.530;2022-12-18T18:10:25;0.40;99.90
11067;DHT22;29763;50.904;5.530;2022-12-18T18:12:52;0.50;99.90
11067;DHT22;29763;50.904;5.530;2022-12-18T18:15:37;0.50;99.90
11067;DHT22;29763;50.904;5.530;2022-12-18T18:18:04;0.50;99.90
11067;DHT22;29763;50.904;5.530;2022-12-18T18:20:29;0.50;99.90
11067;DHT22;29763;50.904;5.530;2022-12-18T18:22:56;0.60;99.90
11067;DHT22;29763;50.904;5.530;2022-12-18T18:25:26;0.60;99.90
11067;DHT22;29763;50.904;5.530;2022-12-18T18:27:51;0.60;99.90
11067;DHT22;29763;50.904;5.530;2022-12-18T18:30:17;0.70;99.90
11067;DHT22;29763;50.904;5.530;2022-12-18T18:32:43;0.70;99.90
11067;DHT22;29763;50.904;5.530;2022-12-18T18:35:09;0.80;99.90
11067;DHT22;29763;50.904;5.530;2022-12-18T18:37:42;0.80;99.90
11067;DHT22;29763;50.904;5.530;2022-12-18T18:40:08;0.80;99.90
11067;DHT22;29763;50.904;5.530;2022-12-18T18:42:35;0.90;99.90
11067;DHT22;29763;50.904;5.530;2022-12-18T18:45:00;0.90;99.90